Ciudad Guayana, Venezuela
Current Conditions -  °F | °C
As of 11:00 AM on Thursday 30 Oct 2014 (Local Time) from TTPP Reporting Station
Scattered Clouds Scattered Clouds  
Wind Chill: 90°   Ceiling: Unl
Heat Index: 100°   Visibility: 6mi
Dew Point: 75°   Wind: 9mph
Humidity: 62%   Direction: 120°ESE
Pressure: 29.85"   Gusts: NA
Location:  8.37°N, 62.62°W
Report Text: TTPP 301500Z 12008KT 9999 SCT018 32/24 Q1011 NOSIG
Loading
Personal Weather Stations






























Interactive Weather Map
Tropical Storm Tracking
New forecast layout! Learn more

10-Day Weather Forecast

Advertisements
Track Severe Weather on mobile